Time;durP1;ratioP1;P1;durP2;ratioP2;P2;SDS_P1;SDS_P2;PMS_P1;PMS_P2;Temp;Humidity;BMP_temperature;BMP_pressure;BME280_temperature;BME280_humidity;BME280_pressure;Samples;Min_cycle;Max_cycle;Signal;HPM_P1;HPM_P2
2024/02/21 00:01:31;;;;;;;9.33;6.40;;;4.50;99.90;;;5.26;100.00;98945.97;10386836;28;20271;-65
2024/02/21 00:06:34;;;;;;;8.70;6.20;;;4.50;99.90;;;5.12;100.00;98948.84;10384076;28;20592;-65
2024/02/21 00:11:37;;;;;;;9.03;6.17;;;4.40;99.90;;;5.02;100.00;98948.72;10382356;28;20230;-65
2024/02/21 00:16:42;;;;;;;10.67;6.37;;;4.40;99.90;;;5.06;100.00;98948.25;10387895;28;20229;-67
2024/02/21 00:21:45;;;;;;;10.33;6.77;;;4.40;99.90;;;5.22;100.00;98937.97;10387335;28;20241;-66
2024/02/21 00:26:48;;;;;;;9.03;6.73;;;4.50;99.90;;;5.16;100.00;98940.81;10386342;28;20226;-65
2024/02/21 00:31:53;;;;;;;6.93;5.73;;;4.50;99.90;;;5.24;100.00;98941.53;10392236;28;20230;-64
2024/02/21 00:36:56;;;;;;;7.30;5.80;;;4.50;99.90;;;5.26;100.00;98930.78;10383146;28;20237;-65
2024/02/21 00:42:00;;;;;;;7.17;5.40;;;4.60;99.90;;;5.40;100.00;98929.53;10381276;28;20234;-65
2024/02/21 00:47:04;;;;;;;8.20;6.23;;;4.60;99.90;;;5.43;100.00;98912.97;10382673;28;20240;-65
2024/02/21 00:52:07;;;;;;;8.70;6.63;;;4.60;99.90;;;5.30;100.00;98902.44;10384688;28;20230;-65
2024/02/21 00:57:11;;;;;;;7.90;5.83;;;4.60;99.90;;;5.32;100.00;98903.50;10385239;28;20225;-65
2024/02/21 01:02:15;;;;;;;6.70;6.10;;;4.60;99.90;;;5.42;100.00;98893.44;10387759;28;20740;-66
2024/02/21 01:07:18;;;;;;;9.67;6.97;;;4.70;99.90;;;5.38;100.00;98898.09;10391868;28;20656;-65
2024/02/21 01:12:21;;;;;;;9.07;6.40;;;4.60;99.90;;;5.33;100.00;98885.00;10391179;28;20232;-66
2024/02/21 01:17:26;;;;;;;9.97;6.43;;;4.70;99.90;;;5.34;100.00;98876.63;10391835;28;20245;-66
2024/02/21 01:22:29;;;;;;;12.07;6.63;;;4.70;99.90;;;5.46;100.00;98871.81;10389995;28;20724;-65
2024/02/21 01:27:32;;;;;;;10.73;6.70;;;4.80;99.90;;;5.49;100.00;98864.47;10387926;28;20230;-65
2024/02/21 01:32:37;;;;;;;8.20;6.77;;;4.90;99.90;;;5.63;100.00;98858.16;10392757;28;20225;-65
2024/02/21 01:37:40;;;;;;;8.10;6.27;;;4.80;99.90;;;5.55;100.00;98856.56;10387923;28;20671;-66
2024/02/21 01:42:43;;;;;;;7.27;6.00;;;4.80;99.90;;;5.62;100.00;98838.63;10385046;28;20242;-65
2024/02/21 01:47:49;;;;;;;8.63;6.77;;;4.90;99.90;;;5.59;100.00;98834.16;10390840;28;20276;-65
2024/02/21 01:52:52;;;;;;;7.53;6.47;;;4.80;99.90;;;5.61;100.00;98824.19;10388313;28;20312;-66
2024/02/21 01:57:55;;;;;;;8.50;7.17;;;4.80;99.90;;;5.56;100.00;98825.41;10391432;28;20658;-66
2024/02/21 02:03:00;;;;;;;8.80;6.83;;;4.90;99.90;;;5.66;100.00;98807.72;10385791;28;20232;-65
2024/02/21 02:08:04;;;;;;;9.47;7.90;;;4.90;99.90;;;5.62;100.00;98801.47;10390120;28;20222;-68
2024/02/21 02:13:07;;;;;;;7.90;6.30;;;4.90;99.90;;;5.67;100.00;98798.47;10390637;28;20230;-66
2024/02/21 02:18:12;;;;;;;7.07;5.57;;;4.90;99.90;;;5.66;100.00;98797.56;10389572;28;20928;-66
2024/02/21 02:23:24;;;;;;;6.77;5.67;;;5.00;99.90;;;5.63;100.00;98782.06;10387710;28;20313;-65
2024/02/21 02:28:27;;;;;;;6.20;5.57;;;5.00;99.90;;;5.67;100.00;98784.16;10386006;28;20237;-64
2024/02/21 02:33:30;;;;;;;8.30;5.47;;;5.00;99.90;;;5.71;100.00;98775.16;10390412;28;20234;-65
2024/02/21 02:38:35;;;;;;;7.97;5.17;;;5.00;99.90;;;5.75;100.00;98768.00;10386139;28;20721;-64
2024/02/21 02:43:38;;;;;;;6.93;5.53;;;5.00;99.90;;;5.73;100.00;98759.34;10389596;28;20320;-65
2024/02/21 02:48:41;;;;;;;6.37;5.37;;;5.00;99.90;;;5.70;100.00;98754.00;10382523;28;20222;-65
2024/02/21 02:53:46;;;;;;;9.03;6.07;;;5.10;99.90;;;5.77;100.00;98745.28;10388632;28;20783;-64
2024/02/21 02:58:49;;;;;;;8.30;4.97;;;5.10;99.90;;;5.85;100.00;98745.22;10386685;28;20245;-64
2024/02/21 03:03:52;;;;;;;8.07;5.57;;;5.20;99.90;;;5.95;100.00;98735.91;10385206;28;20546;-65
2024/02/21 03:08:56;;;;;;;6.47;5.80;;;5.30;99.90;;;5.93;100.00;98722.19;10383825;28;20786;-65
2024/02/21 03:14:00;;;;;;;9.30;5.43;;;5.30;99.90;;;5.96;100.00;98722.50;10385804;28;20233;-65
2024/02/21 03:19:03;;;;;;;8.00;5.50;;;5.30;99.90;;;6.02;100.00;98707.81;10382356;28;20222;-65
2024/02/21 03:24:08;;;;;;;6.87;5.30;;;5.40;99.90;;;6.06;100.00;98700.56;10383307;28;20225;-65
2024/02/21 03:29:12;;;;;;;5.90;5.30;;;5.40;99.90;;;6.06;100.00;98695.50;10389619;28;20231;-65
2024/02/21 03:34:15;;;;;;;7.27;5.33;;;5.40;99.90;;;6.00;100.00;98691.53;10384629;28;20631;-65
2024/02/21 03:39:21;;;;;;;8.17;5.37;;;5.30;99.90;;;6.08;100.00;98673.69;10383594;28;20232;-66
2024/02/21 03:44:24;;;;;;;9.00;6.37;;;5.50;99.90;;;5.97;100.00;98665.91;10382721;28;20222;-66
2024/02/21 03:49:27;;;;;;;11.87;5.70;;;5.40;99.90;;;6.01;100.00;98665.41;10383384;28;20249;-66
2024/02/21 03:54:32;;;;;;;8.47;5.90;;;5.50;99.90;;;6.00;100.00;98668.72;10384205;28;20241;-65
2024/02/21 03:59:35;;;;;;;7.67;5.83;;;5.50;99.90;;;6.02;100.00;98677.34;10388283;28;20240;-65
2024/02/21 04:04:38;;;;;;;8.87;6.17;;;5.50;99.90;;;6.12;100.00;98685.00;10383328;28;20230;-66
2024/02/21 04:09:43;;;;;;;11.27;6.80;;;5.60;99.90;;;6.17;100.00;98678.69;10380067;28;20225;-66
2024/02/21 04:14:46;;;;;;;10.73;6.77;;;5.60;99.90;;;6.08;100.00;98686.38;10385248;28;20228;-67
2024/02/21 04:19:49;;;;;;;8.67;6.80;;;5.50;99.90;;;6.03;100.00;98684.19;10383839;28;20649;-66
2024/02/21 04:24:54;;;;;;;9.27;5.90;;;5.40;99.90;;;5.94;100.00;98670.72;10382585;28;20229;-66
2024/02/21 04:29:57;;;;;;;7.00;5.97;;;5.30;99.90;;;5.86;100.00;98670.88;10381485;28;20222;-66
2024/02/21 04:35:00;;;;;;;7.73;6.30;;;5.30;99.90;;;5.88;100.00;98656.69;10388038;28;20717;-66
2024/02/21 04:40:07;;;;;;;7.90;6.50;;;5.30;99.90;;;5.84;100.00;98657.19;10389946;28;20256;-67
2024/02/21 04:45:11;;;;;;;10.80;6.83;;;5.20;99.90;;;5.85;100.00;98633.59;10392592;28;20226;-66
2024/02/21 04:50:15;;;;;;;7.27;5.60;;;5.20;99.90;;;5.91;100.00;98632.34;10395036;28;20858;-66
2024/02/21 04:55:19;;;;;;;8.03;6.10;;;5.20;99.90;;;5.76;100.00;98615.03;10391317;28;20288;-66
2024/02/21 05:00:23;;;;;;;10.00;6.70;;;5.20;99.90;;;5.85;100.00;98618.38;10392128;28;20248;-66
2024/02/21 05:05:26;;;;;;;12.00;7.20;;;5.20;99.90;;;5.73;100.00;98614.78;10390726;28;20240;-66
2024/02/21 05:10:31;;;;;;;7.40;6.60;;;5.10;99.90;;;5.74;100.00;98603.88;10385334;28;20231;-66
2024/02/21 05:15:34;;;;;;;9.97;6.33;;;5.10;99.90;;;5.63;100.00;98607.09;10385474;28;20276;-65
2024/02/21 05:20:37;;;;;;;7.20;5.60;;;4.90;99.90;;;5.53;100.00;98617.22;10389186;28;20251;-67
2024/02/21 05:25:42;;;;;;;8.33;6.13;;;4.80;99.90;;;5.53;100.00;98627.34;10393118;28;20279;-67
2024/02/21 05:30:45;;;;;;;9.07;6.90;;;4.80;99.90;;;5.49;100.00;98631.22;10388573;28;20233;-67
2024/02/21 05:35:48;;;;;;;9.83;7.30;;;4.80;99.90;;;5.42;100.00;98618.78;10381682;28;20230;-68
2024/02/21 05:40:53;;;;;;;9.30;6.40;;;4.70;99.90;;;5.28;100.00;98620.06;10380805;28;20233;-66
2024/02/21 05:45:56;;;;;;;9.60;6.03;;;4.50;99.90;;;4.93;100.00;98617.78;10386139;28;20244;-66
2024/02/21 05:51:02;;;;;;;6.10;5.60;;;4.30;99.90;;;4.78;100.00;98591.09;10394141;28;20305;-66
2024/02/21 05:56:11;;;;;;;7.63;6.40;;;4.10;99.90;;;4.71;100.00;98593.78;10392089;28;20238;-67
2024/02/21 06:01:14;;;;;;;9.23;6.50;;;4.00;99.90;;;4.73;100.00;98584.72;10388015;28;20316;-66
2024/02/21 06:06:17;;;;;;;7.87;6.67;;;4.00;99.90;;;4.65;100.00;98591.59;10391304;28;20229;-67
2024/02/21 06:11:22;;;;;;;10.93;7.67;;;4.00;99.90;;;4.57;100.00;98582.41;10395422;28;20238;-66
2024/02/21 06:16:25;;;;;;;8.00;7.27;;;3.90;99.90;;;4.43;100.00;98568.47;10400157;28;20661;-67
2024/02/21 06:21:30;;;;;;;11.97;8.50;;;3.70;99.90;;;4.43;100.00;98578.59;10391016;28;20287;-66
2024/02/21 06:26:35;;;;;;;9.63;6.70;;;3.70;99.90;;;4.42;100.00;98581.88;10389445;28;20233;-66
2024/02/21 06:31:38;;;;;;;7.37;5.90;;;3.70;99.90;;;4.38;100.00;98586.50;10392902;28;20311;-67
2024/02/21 06:36:41;;;;;;;8.97;5.97;;;3.70;99.90;;;4.25;100.00;98592.09;10391701;28;20226;-66
2024/02/21 06:41:46;;;;;;;6.40;5.47;;;3.60;99.90;;;4.37;100.00;98583.09;10396443;28;20233;-66
2024/02/21 06:46:49;;;;;;;8.30;5.53;;;3.70;99.90;;;4.42;100.00;98576.81;10393291;28;20253;-66
2024/02/21 06:51:53;;;;;;;8.80;5.30;;;3.80;99.90;;;4.66;100.00;98587.41;10389455;28;20325;-66
2024/02/21 06:56:57;;;;;;;6.10;5.50;;;4.00;99.90;;;4.90;100.00;98594.72;10387226;28;20226;-66
2024/02/21 07:02:00;;;;;;;5.97;5.00;;;4.10;99.90;;;5.07;100.00;98582.69;10386272;28;20760;-66
2024/02/21 07:07:04;;;;;;;6.37;4.73;;;4.30;99.90;;;5.56;100.00;98582.88;10389252;28;20701;-67
2024/02/21 07:12:09;;;;;;;7.57;5.73;;;4.60;99.90;;;5.99;100.00;98581.56;10389538;28;20237;-67
2024/02/21 07:17:12;;;;;;;6.40;5.80;;;4.90;99.90;;;6.18;98.52;98573.88;10391346;28;20230;-67
2024/02/21 07:22:15;;;;;;;6.07;5.33;;;5.20;99.90;;;6.17;98.87;98572.09;10389718;28;20239;-66
2024/02/21 07:27:20;;;;;;;6.50;5.67;;;5.20;99.90;;;6.22;98.38;98564.88;10387857;28;20221;-66
2024/02/21 07:32:23;;;;;;;8.67;5.87;;;5.30;99.90;;;6.30;98.50;98553.72;10384171;28;20233;-66
2024/02/21 07:37:26;;;;;;;8.47;6.10;;;5.50;99.90;;;6.50;98.99;98548.69;10382504;28;20603;-67
2024/02/21 07:42:35;;;;;;;11.50;9.27;;;5.60;99.90;;;6.94;95.99;98553.13;10389638;28;20230;-67
2024/02/21 07:47:38;;;;;;;9.13;7.23;;;6.00;99.90;;;7.08;95.92;98547.50;10392694;28;20693;-67
2024/02/21 07:52:42;;;;;;;10.67;9.30;;;6.30;99.90;;;7.56;92.92;98543.72;10386405;28;20241;-67
2024/02/21 07:57:46;;;;;;;8.27;6.83;;;6.70;99.90;;;7.83;91.46;98537.38;10387839;28;20321;-66
2024/02/21 08:02:50;;;;;;;7.87;6.57;;;7.00;99.90;;;8.32;88.79;98526.75;10384867;28;20698;-67
2024/02/21 08:07:53;;;;;;;11.47;7.23;;;7.50;99.90;;;8.49;87.43;98515.34;10381976;28;20766;-66
2024/02/21 08:13:01;;;;;;;8.77;5.57;;;7.80;99.90;;;8.55;89.54;98492.00;10383133;28;20236;-67
2024/02/21 08:18:05;;;;;;;8.10;6.47;;;7.70;99.90;;;9.07;85.57;98490.78;10387451;28;20363;-67
2024/02/21 08:23:08;;;;;;;7.57;6.20;;;8.20;99.90;;;9.08;87.00;98481.44;10390620;28;20230;-64
2024/02/21 08:28:14;;;;;;;9.47;5.97;;;8.30;99.90;;;9.28;82.57;98473.56;10392764;28;20221;-67
2024/02/21 08:33:18;;;;;;;8.18;5.57;;;8.50;99.90;;;9.67;79.23;98469.50;10385420;28;20666;-66
2024/02/21 08:38:22;;;;;;;8.07;5.60;;;8.90;99.90;;;9.91;78.73;98458.47;10384649;28;20232;-64
2024/02/21 08:43:26;;;;;;;6.63;5.43;;;9.10;99.90;;;10.16;79.17;98460.16;10387490;28;20728;-66
2024/02/21 08:48:29;;;;;;;8.88;4.95;;;9.40;99.90;;;10.24;77.26;98448.78;10384486;28;20221;-67
2024/02/21 08:53:33;;;;;;;7.72;5.75;;;9.50;99.90;;;10.65;75.83;98450.72;10389486;28;20731;-67
2024/02/21 08:58:38;;;;;;;7.05;4.60;;;9.90;99.90;;;10.59;75.28;98452.88;10380192;28;20798;-67
2024/02/21 09:03:41;;;;;;;6.53;4.00;;;9.90;99.90;;;10.75;73.16;98460.75;10384263;28;20234;-67
2024/02/21 09:08:46;;;;;;;8.23;4.40;;;9.80;99.90;;;10.97;73.37;98447.69;10389223;28;20272;-66
2024/02/21 09:13:50;;;;;;;8.32;4.47;;;10.00;99.90;;;11.03;70.14;98442.09;10387128;28;20236;-67
2024/02/21 09:18:54;;;;;;;6.78;4.05;;;10.00;99.90;;;11.27;69.54;98436.00;10383800;28;20249;-66
2024/02/21 09:23:57;;;;;;;6.70;4.18;;;10.20;99.90;;;11.09;69.22;98427.13;10397640;28;20249;-67
2024/02/21 09:29:04;;;;;;;7.75;4.70;;;10.00;99.90;;;11.21;68.74;98417.66;10394683;28;20221;-67
2024/02/21 09:34:07;;;;;;;4.95;3.92;;;10.10;99.90;;;11.27;66.06;98415.53;10396557;28;20238;-66
2024/02/21 09:39:14;;;;;;;5.07;4.13;;;10.20;99.90;;;11.06;68.39;98411.59;10394198;28;20246;-67
2024/02/21 09:44:20;;;;;;;6.55;4.00;;;10.00;99.90;;;11.08;67.93;98407.47;10393939;28;20226;-66
2024/02/21 09:49:32;;;;;;;6.95;3.65;;;10.00;99.90;;;11.17;68.09;98390.13;10392058;28;20241;-66
2024/02/21 09:54:36;;;;;;;6.35;3.50;;;10.20;99.90;;;11.30;66.01;98385.78;10389109;28;20769;-66
2024/02/21 09:59:41;;;;;;;5.60;3.30;;;10.40;99.90;;;11.60;64.03;98382.56;10391846;28;20233;-67
2024/02/21 10:04:44;;;;;;;6.10;3.17;;;10.60;99.90;;;11.68;62.55;98376.25;10386790;28;20751;-66
2024/02/21 10:09:48;;;;;;;4.97;3.30;;;10.90;99.90;;;11.64;64.00;98369.16;10393506;28;20711;-66
2024/02/21 10:15:02;;;;;;;5.18;3.30;;;10.80;99.90;;;11.90;62.30;98369.88;10392986;28;20232;-67
2024/02/21 10:20:09;;;;;;;5.50;2.95;;;11.00;99.90;;;12.11;61.26;98367.72;10383771;28;20779;-67
2024/02/21 10:25:14;;;;;;;5.03;2.85;;;11.20;99.90;;;12.26;59.31;98357.47;10390008;28;20341;-66
2024/02/21 10:30:19;;;;;;;5.85;3.33;;;11.50;99.90;;;12.28;60.35;98366.16;10393870;28;20248;-66
2024/02/21 10:35:29;;;;;;;5.65;3.45;;;11.50;99.90;;;12.46;59.42;98356.06;10395320;28;20622;-66
2024/02/21 10:40:34;;;;;;;4.85;2.75;;;11.70;99.90;;;12.37;59.80;98341.06;10396665;28;20435;-64
2024/02/21 10:45:38;;;;;;;4.85;2.97;;;11.60;99.90;;;12.65;57.94;98343.53;10392215;28;20246;-66
2024/02/21 10:50:56;;;;;;;5.00;2.80;;;11.90;99.90;;;12.86;55.69;98323.31;10389155;28;20225;-66
2024/02/21 10:56:15;;;;;;;5.72;3.20;;;12.10;99.90;;;12.89;54.76;98308.09;10393927;28;20221;-66
2024/02/21 11:01:20;;;;;;;3.85;3.03;;;12.10;99.90;;;12.96;54.53;98304.16;10387845;28;20703;-66
2024/02/21 11:06:28;;;;;;;3.80;2.65;;;12.20;99.90;;;12.88;53.27;98290.03;10392877;28;20225;-66
2024/02/21 11:11:34;;;;;;;3.25;2.38;;;12.10;99.90;;;13.03;52.82;98278.06;10389002;28;20992;-67
2024/02/21 11:16:44;;;;;;;4.63;2.67;;;12.30;99.90;;;13.12;52.00;98255.44;10389043;28;20714;-65
2024/02/21 11:21:47;;;;;;;3.53;2.50;;;12.50;99.90;;;13.27;52.68;98250.25;10393074;28;20232;-65
2024/02/21 11:26:51;;;;;;;4.95;2.28;;;12.50;99.90;;;13.32;52.51;98241.13;10388999;28;20718;-66
2024/02/21 11:31:56;;;;;;;5.78;2.70;;;12.50;99.70;;;13.27;50.77;98219.47;10390338;28;20301;-66
2024/02/21 11:36:59;;;;;;;4.50;2.25;;;12.30;99.00;;;13.32;49.49;98212.88;10385520;28;20226;-66
2024/02/21 11:42:04;;;;;;;3.72;2.40;;;12.60;97.40;;;13.20;51.97;98199.38;10387988;28;20257;-67
2024/02/21 11:47:09;;;;;;;2.83;2.08;;;12.40;99.10;;;13.17;51.53;98196.66;10385511;28;20312;-67
2024/02/21 11:52:15;;;;;;;3.55;2.63;;;12.40;98.60;;;13.54;49.29;98183.19;10387402;28;20234;-67
2024/02/21 11:57:19;;;;;;;3.78;2.40;;;12.60;97.60;;;13.52;49.96;98183.97;10391563;28;20712;-67
2024/02/21 12:02:24;;;;;;;4.93;2.42;;;12.50;97.70;;;13.62;49.44;98163.88;10390996;28;20697;-67
2024/02/21 12:07:28;;;;;;;3.85;2.38;;;12.60;97.20;;;13.53;50.54;98156.59;10384565;28;20321;-67
2024/02/21 12:12:36;;;;;;;3.40;1.92;;;12.50;97.70;;;13.47;49.00;98139.19;10385501;28;20229;-67
2024/02/21 12:17:41;;;;;;;5.63;2.20;;;12.50;96.50;;;13.84;46.03;98132.44;10386352;28;20233;-66
2024/02/21 12:22:45;;;;;;;2.60;2.20;;;12.90;94.80;;;13.73;48.52;98126.75;10389352;28;20328;-67
2024/02/21 12:27:48;;;;;;;6.03;2.90;;;12.90;96.30;;;13.89;49.65;98121.56;10387124;28;20234;-65
2024/02/21 12:32:53;;;;;;;5.03;3.00;;;13.00;97.40;;;13.76;51.35;98111.50;10392597;28;20249;-66
2024/02/21 12:37:57;;;;;;;6.15;3.03;;;12.80;98.90;;;13.87;51.63;98096.59;10386371;28;20226;-64
2024/02/21 12:43:03;;;;;;;4.53;2.53;;;12.90;98.80;;;13.96;49.04;98090.22;10380360;28;20291;-66
2024/02/21 12:48:08;;;;;;;4.25;2.47;;;13.00;96.70;;;13.72;51.29;98077.06;10387919;28;20792;-66
2024/02/21 12:53:11;;;;;;;3.78;2.35;;;12.90;98.40;;;13.92;49.34;98062.59;10388695;28;20225;-64
2024/02/21 12:58:28;;;;;;;5.43;2.47;;;12.90;96.80;;;13.95;49.44;98055.03;10401006;28;20611;-65
2024/02/21 13:03:36;;;;;;;6.10;2.90;;;13.10;96.80;;;13.83;49.14;98044.19;10398651;28;20240;-64
2024/02/21 13:08:39;;;;;;;3.47;2.50;;;13.00;96.50;;;13.73;51.66;98026.56;10398398;28;20225;-66
2024/02/21 13:13:42;;;;;;;5.70;2.90;;;12.90;98.20;;;13.80;50.84;98020.06;10396847;28;20318;-64
2024/02/21 13:18:47;;;;;;;5.38;2.50;;;12.90;98.00;;;13.61;51.07;98008.03;10393195;28;20248;-66
2024/02/21 13:23:51;;;;;;;4.43;2.50;;;12.60;97.60;;;13.59;50.47;97996.78;10390613;28;20321;-65
2024/02/21 13:28:54;;;;;;;5.05;2.35;;;12.70;97.70;;;13.66;51.65;97993.72;10394652;28;20228;-66
2024/02/21 13:33:59;;;;;;;3.55;3.05;;;12.70;98.20;;;13.64;50.61;97979.91;10399195;28;20303;-66
2024/02/21 13:39:04;;;;;;;3.60;3.00;;;12.60;97.80;;;13.46;52.33;97970.53;10397358;28;20225;-65
2024/02/21 13:44:09;;;;;;;5.43;2.80;;;12.50;99.60;;;13.48;51.74;97968.94;10398006;28;20657;-67
2024/02/21 13:49:14;;;;;;;4.38;2.33;;;12.50;98.40;;;13.64;50.48;97954.22;10390271;28;20226;-66
2024/02/21 13:54:19;;;;;;;6.20;2.80;;;12.80;97.60;;;13.54;52.62;97940.09;10395890;28;20230;-65
2024/02/21 13:59:22;;;;;;;4.38;2.78;;;12.60;99.20;;;13.55;50.93;97940.97;10394018;28;20317;-65
2024/02/21 14:04:27;;;;;;;3.88;2.83;;;12.60;97.90;;;13.58;51.68;97941.97;10393426;28;20710;-66
2024/02/21 14:09:30;;;;;;;4.00;2.30;;;12.60;98.50;;;13.29;52.90;97943.19;10397434;28;20372;-67
2024/02/21 14:14:33;;;;;;;4.30;2.47;;;12.40;99.80;;;13.27;52.92;97934.50;10394719;28;20255;-67
2024/02/21 14:19:41;;;;;;;5.20;2.70;;;12.30;99.80;;;13.21;54.18;97921.38;10391499;28;20233;-67
2024/02/21 14:24:44;;;;;;;4.80;3.10;;;12.30;99.90;;;13.11;54.26;97914.91;10392277;28;20230;-67
2024/02/21 14:29:50;;;;;;;3.92;2.95;;;12.20;99.90;;;13.17;55.00;97897.25;10388565;28;20308;-67
2024/02/21 14:34:55;;;;;;;5.38;2.67;;;12.20;99.90;;;13.05;55.08;97897.53;10390944;28;20604;-66
2024/02/21 14:40:00;;;;;;;3.78;2.35;;;12.20;99.90;;;13.06;55.93;97891.59;10393249;28;20229;-66
2024/02/21 14:45:04;;;;;;;6.63;2.65;;;12.20;99.90;;;13.01;56.15;97882.78;10392320;28;20222;-67
2024/02/21 14:50:10;;;;;;;5.13;2.67;;;12.10;99.90;;;12.97;55.07;97880.91;10385761;28;20225;-66
2024/02/21 14:55:15;;;;;;;3.33;2.40;;;12.10;99.90;;;12.96;56.53;97880.81;10384567;28;20337;-66
2024/02/21 15:00:21;;;;;;;3.85;2.55;;;12.10;99.90;;;12.92;56.69;97871.22;10392193;28;20686;-67
2024/02/21 15:05:25;;;;;;;3.20;2.90;;;12.00;99.90;;;12.85;56.45;97854.66;10396296;28;20309;-67
2024/02/21 15:10:28;;;;;;;4.07;2.85;;;12.00;99.90;;;12.85;56.93;97855.53;10398007;28;20241;-65
2024/02/21 15:15:32;;;;;;;3.75;2.38;;;12.00;99.90;;;12.82;57.10;97854.53;10396373;28;20280;-65
2024/02/21 15:20:36;;;;;;;2.45;2.25;;;12.00;99.90;;;12.80;56.37;97844.16;10391524;28;20229;-65
2024/02/21 15:25:40;;;;;;;5.80;2.78;;;11.90;99.90;;;12.80;57.30;97836.47;10394893;28;20236;-66
2024/02/21 15:30:43;;;;;;;5.43;2.50;;;11.90;99.90;;;12.83;55.78;97825.50;10386278;28;20303;-67
2024/02/21 15:35:48;;;;;;;3.67;3.30;;;11.90;99.90;;;12.83;56.66;97812.66;10393839;28;20260;-65
2024/02/21 15:40:51;;;;;;;4.70;3.15;;;11.90;99.90;;;12.67;57.16;97820.41;10390875;28;20225;-66
2024/02/21 15:45:55;;;;;;;5.30;3.05;;;11.80;99.90;;;12.57;56.84;97801.16;10391819;28;20331;-66
2024/02/21 15:51:00;;;;;;;3.63;2.78;;;11.70;99.90;;;12.45;58.57;97806.59;10385415;28;20226;-66
2024/02/21 15:56:06;;;;;;;4.80;2.85;;;11.60;99.90;;;12.31;59.81;97781.97;10392406;28;20228;-66
2024/02/21 16:01:11;;;;;;;6.70;3.58;;;11.40;99.90;;;12.16;62.68;97776.94;10387842;28;20609;-66
2024/02/21 16:06:16;;;;;;;5.78;4.15;;;11.30;99.90;;;11.99;62.67;97757.28;10388650;28;20230;-67
2024/02/21 16:11:19;;;;;;;4.90;4.00;;;11.20;99.90;;;11.96;62.07;97747.81;10388590;28;20278;-66
2024/02/21 16:16:22;;;;;;;6.32;4.53;;;11.10;99.90;;;12.05;61.65;97722.63;10391178;28;20245;-66
2024/02/21 16:21:27;;;;;;;5.15;4.43;;;11.20;99.90;;;11.87;64.47;97721.72;10388281;28;20234;-67
2024/02/21 16:26:30;;;;;;;5.82;3.67;;;11.10;99.90;;;11.82;65.03;97708.66;10382187;28;20221;-66
2024/02/21 16:31:34;;;;;;;5.28;4.18;;;10.90;99.90;;;11.73;66.74;97696.28;10384597;28;20226;-67
2024/02/21 16:36:39;;;;;;;5.15;3.85;;;10.90;99.90;;;11.40;68.42;97707.38;10390625;28;20712;-67
2024/02/21 16:41:43;;;;;;;3.88;3.50;;;10.70;99.90;;;11.33;69.24;97706.19;10391773;28;20243;-66
2024/02/21 16:46:46;;;;;;;5.90;3.55;;;10.60;99.90;;;11.23;68.94;97701.38;10382565;28;20230;-65
2024/02/21 16:51:51;;;;;;;5.97;4.10;;;10.50;99.90;;;11.12;70.27;97680.34;10383317;28;20506;-67
2024/02/21 16:56:54;;;;;;;5.90;3.88;;;10.40;99.90;;;11.03;69.86;97685.88;10374200;28;20233;-67
2024/02/21 17:01:57;;;;;;;5.55;3.70;;;10.30;99.90;;;10.90;70.78;97678.38;10380522;28;20597;-67
2024/02/21 17:07:02;;;;;;;6.35;3.90;;;10.10;99.90;;;10.64;73.98;97679.53;10385030;28;20616;-67
2024/02/21 17:12:07;;;;;;;4.45;3.17;;;9.90;99.90;;;10.55;74.77;97674.78;10380149;28;20292;-67
2024/02/21 17:17:10;;;;;;;5.55;3.72;;;9.80;99.90;;;10.48;75.98;97671.84;10384541;28;20307;-67
2024/02/21 17:22:15;;;;;;;6.43;3.85;;;9.70;99.90;;;10.43;77.62;97660.50;10384292;28;20222;-67
2024/02/21 17:27:18;;;;;;;2.78;2.50;;;9.60;99.90;;;10.20;78.29;97642.19;10385037;28;20283;-67
2024/02/21 17:32:21;;;;;;;11.75;10.07;;;9.40;99.90;;;10.13;79.35;97642.66;10377316;28;20234;-67
2024/02/21 17:37:25;;;;;;;14.75;13.23;;;9.30;99.90;;;10.10;81.66;97645.94;10373565;28;20226;-67
2024/02/21 17:42:29;;;;;;;6.93;4.90;;;9.30;99.90;;;9.86;82.19;97639.44;10380201;28;20336;-66
2024/02/21 17:47:32;;;;;;;4.60;4.20;;;9.10;99.90;;;9.82;83.16;97630.75;10386496;28;20793;-67
2024/02/21 17:52:36;;;;;;;5.35;4.65;;;9.10;99.90;;;9.77;81.60;97631.28;10387421;28;20242;-67
2024/02/21 17:57:40;;;;;;;5.40;4.38;;;9.00;99.90;;;9.79;81.89;97625.47;10394321;28;20236;-67
2024/02/21 18:02:43;;;;;;;6.45;5.82;;;9.00;99.90;;;9.76;84.25;97638.06;10396094;28;20257;-67
2024/02/21 18:07:48;;;;;;;5.65;4.43;;;9.00;99.90;;;9.69;83.66;97618.06;10394538;28;20247;-66
2024/02/21 18:12:51;;;;;;;4.47;3.90;;;8.90;99.90;;;9.75;84.63;97612.44;10383439;28;20230;-67
2024/02/21 18:17:54;;;;;;;4.05;3.70;;;8.80;99.90;;;9.50;85.30;97603.41;10389009;28;20236;-66
2024/02/21 18:22:59;;;;;;;3.95;3.13;;;8.70;99.90;;;9.53;85.28;97620.53;10384278;28;20221;-67
2024/02/21 18:28:03;;;;;;;3.78;3.40;;;8.70;99.90;;;9.55;85.59;97601.09;10391316;28;20317;-66
2024/02/21 18:33:07;;;;;;;4.75;4.03;;;8.70;99.90;;;9.63;83.98;97579.47;10384343;28;20226;-67
2024/02/21 18:38:13;;;;;;;6.75;5.13;;;8.70;99.90;;;9.35;86.29;97588.09;10389963;28;20226;-67
2024/02/21 18:43:17;;;;;;;21.20;15.45;;;8.60;99.90;;;9.22;87.76;97578.00;10384842;28;20229;-67
2024/02/21 18:48:20;;;;;;;5.53;5.05;;;8.50;99.90;;;9.30;85.96;97569.13;10389654;28;20233;-67
2024/02/21 18:53:24;;;;;;;4.28;3.25;;;8.50;99.90;;;9.66;83.34;97567.75;10386680;28;20312;-67
2024/02/21 18:58:28;;;;;;;4.30;3.88;;;8.80;99.90;;;9.12;85.99;97576.56;10386238;28;20257;-67
2024/02/21 19:03:31;;;;;;;6.25;5.35;;;8.50;99.90;;;8.96;87.96;97564.63;10380511;28;20300;-67
2024/02/21 19:08:35;;;;;;;7.30;5.65;;;8.30;99.90;;;9.12;87.82;97561.28;10377512;28;20221;-67
2024/02/21 19:13:39;;;;;;;6.28;5.22;;;8.40;99.90;;;8.98;88.26;97542.63;10380431;28;20379;-67
2024/02/21 19:18:42;;;;;;;7.50;4.97;;;8.30;99.90;;;9.03;88.24;97555.66;10383755;28;20292;-67
2024/02/21 19:23:47;;;;;;;6.18;5.60;;;8.30;99.90;;;9.21;85.12;97536.31;10381311;28;20241;-68
2024/02/21 19:28:50;;;;;;;6.95;6.25;;;8.50;99.90;;;9.05;87.24;97532.81;10394827;28;20222;-68
2024/02/21 19:33:54;;;;;;;7.07;5.78;;;8.30;99.90;;;9.10;88.48;97541.56;10383163;28;21630;-68
2024/02/21 19:38:58;;;;;;;13.50;10.27;;;8.40;99.90;;;9.21;85.75;97540.53;10385299;28;20232;-68
2024/02/21 19:44:01;;;;;;;15.30;10.32;;;8.40;99.90;;;9.25;86.76;97542.47;10386098;28;20237;-67
2024/02/21 19:49:05;;;;;;;11.85;8.93;;;8.50;99.90;;;9.14;87.77;97512.94;10385310;28;20226;-68
2024/02/21 19:54:12;;;;;;;13.05;10.45;;;8.40;99.90;;;9.36;85.84;97518.47;10382833;28;20233;-69
2024/02/21 19:59:27;;;;;;;10.05;8.02;;;8.60;99.90;;;9.06;87.87;97488.69;10380777;28;20226;-68
2024/02/21 20:04:30;;;;;;;8.23;6.93;;;8.40;99.90;;;8.88;85.60;97484.28;10379626;28;20225;-68
2024/02/21 20:09:36;;;;;;;6.43;5.75;;;8.30;99.90;;;9.28;79.72;97485.66;10380353;28;20221;-67
2024/02/21 20:14:40;;;;;;;6.97;6.28;;;8.60;99.90;;;9.33;76.77;97464.72;10371680;28;20233;-67
2024/02/21 20:19:43;;;;;;;5.00;4.60;;;8.70;99.90;;;9.59;71.90;97467.84;10373274;28;20226;-68
2024/02/21 20:24:47;;;;;;;4.30;4.00;;;9.00;99.90;;;9.78;69.40;97450.13;10373553;28;20739;-68
2024/02/21 20:29:50;;;;;;;3.90;3.60;;;9.10;99.90;;;9.86;66.82;97451.44;10382099;28;20229;-68
2024/02/21 20:34:53;;;;;;;3.80;3.50;;;9.30;99.90;;;10.06;63.23;97436.28;10369943;28;20604;-68
2024/02/21 20:39:58;;;;;;;3.80;3.45;;;9.50;99.90;;;10.41;62.14;97434.69;10371575;28;20327;-66
2024/02/21 20:45:02;;;;;;;3.67;3.20;;;9.60;99.90;;;10.55;61.52;97423.50;10376358;28;20721;-66
2024/02/21 20:50:06;;;;;;;2.42;2.05;;;9.80;99.90;;;11.03;56.05;97424.13;10376911;28;20317;-66
2024/02/21 20:55:11;;;;;;;3.38;3.05;;;10.50;99.90;;;10.89;59.04;97431.13;10372572;28;20558;-66
2024/02/21 21:00:15;;;;;;;2.22;2.03;;;10.30;99.90;;;11.07;57.77;97450.72;10375193;28;20233;-66
2024/02/21 21:05:18;;;;;;;2.35;2.15;;;10.50;99.90;;;11.21;58.19;97435.25;10370983;28;20229;-67
2024/02/21 21:10:23;;;;;;;2.75;2.63;;;10.60;99.90;;;11.24;58.21;97430.25;10374981;28;20829;-69
2024/02/21 21:15:28;;;;;;;2.40;2.22;;;10.60;99.90;;;11.23;58.77;97400.38;10371214;28;20710;-68